Time;durP1;ratioP1;P1;durP2;ratioP2;P2;SDS_P1;SDS_P2;PMS_P1;PMS_P2;Temp;Humidity;BMP_temperature;BMP_pressure;BME280_temperature;BME280_humidity;BME280_pressure;Samples;Min_cycle;Max_cycle;Signal;HPM_P1;HPM_P2
2023/07/25 00:03:14;;;;;;;13.18;9.25;;;;;;;;;;10202819;28;20103;-70
2023/07/25 00:08:10;;;;;;;18.70;10.10;;;;;;;;;;10224970;28;20571;-70
2023/07/25 00:13:07;;;;;;;15.93;8.63;;;;;;;;;;10206050;28;20049;-70
2023/07/25 00:18:04;;;;;;;16.73;8.90;;;;;;;;;;10222606;28;20049;-69
2023/07/25 00:23:00;;;;;;;15.93;9.40;;;;;;;;;;10225827;28;20065;-70
2023/07/25 00:27:57;;;;;;;11.07;9.98;;;;;;;;;;10220160;28;20053;-69
2023/07/25 00:32:53;;;;;;;11.18;9.00;;;;;;;;;;10220856;28;20057;-70
2023/07/25 00:37:49;;;;;;;11.85;9.55;;;;;;;;;;10214389;28;20507;-70
2023/07/25 00:42:45;;;;;;;14.05;9.75;;;;;;;;;;10220225;28;20052;-69
2023/07/25 00:47:42;;;;;;;15.65;10.05;;;;;;;;;;10200789;28;20642;-70
2023/07/25 00:52:38;;;;;;;17.10;10.35;;;;;;;;;;10224097;28;20049;-69
2023/07/25 00:57:34;;;;;;;14.02;9.98;;;;;;;;;;10218339;28;20507;-69
2023/07/25 01:02:31;;;;;;;10.48;9.32;;;;;;;;;;10222581;28;20443;-69
2023/07/25 01:07:28;;;;;;;11.68;9.63;;;;;;;;;;10216867;28;20056;-69
2023/07/25 01:12:24;;;;;;;18.23;11.10;;;;;;;;;;10224392;28;20482;-69
2023/07/25 01:17:22;;;;;;;14.10;9.35;;;;;;;;;;10225951;28;20396;-69
2023/07/25 01:22:19;;;;;;;13.02;10.48;;;;;;;;;;10221889;28;20132;-69
2023/07/25 01:27:16;;;;;;;15.02;9.25;;;;;;;;;;10212105;28;20095;-70
2023/07/25 01:32:12;;;;;;;13.00;9.02;;;;;;;;;;10211398;28;20049;-72
2023/07/25 01:37:09;;;;;;;11.63;9.95;;;;;;;;;;10211079;28;20465;-70
2023/07/25 01:42:05;;;;;;;12.60;10.73;;;;;;;;;;10215464;28;20049;-70
2023/07/25 01:47:01;;;;;;;13.05;9.00;;;;;;;;;;10214016;28;20049;-70
2023/07/25 01:51:58;;;;;;;14.50;9.57;;;;;;;;;;10198448;28;20466;-69
2023/07/25 01:56:54;;;;;;;13.40;8.88;;;;;;;;;;10218124;28;20057;-69
2023/07/25 02:01:50;;;;;;;14.40;9.40;;;;;;;;;;10219891;28;20064;-70
2023/07/25 02:06:47;;;;;;;15.00;9.82;;;;;;;;;;10217608;28;20038;-69
2023/07/25 02:11:43;;;;;;;9.98;8.98;;;;;;;;;;10224645;28;20655;-70
2023/07/25 02:16:40;;;;;;;11.30;10.20;;;;;;;;;;10226642;28;20046;-71
2023/07/25 02:21:36;;;;;;;11.93;9.77;;;;;;;;;;10219692;28;20072;-72
2023/07/25 02:26:33;;;;;;;11.60;9.60;;;;;;;;;;10220326;28;20045;-72
2023/07/25 02:31:29;;;;;;;10.98;9.13;;;;;;;;;;10213193;28;20113;-69
2023/07/25 02:36:26;;;;;;;12.93;9.65;;;;;;;;;;10215746;28;20069;-68
2023/07/25 02:41:22;;;;;;;12.60;10.60;;;;;;;;;;10194225;28;20045;-71
2023/07/25 02:46:19;;;;;;;10.82;9.82;;;;;;;;;;10218330;28;20357;-70
2023/07/25 02:51:15;;;;;;;12.68;10.35;;;;;;;;;;10214722;28;20046;-70
2023/07/25 02:56:11;;;;;;;13.38;10.50;;;;;;;;;;10214155;28;20466;-70
2023/07/25 03:01:08;;;;;;;11.32;10.27;;;;;;;;;;10220955;28;20134;-69
2023/07/25 03:06:04;;;;;;;12.38;10.70;;;;;;;;;;10223936;28;20840;-69
2023/07/25 03:11:00;;;;;;;12.65;10.90;;;;;;;;;;10220708;28;20104;-69
2023/07/25 03:15:57;;;;;;;12.45;11.32;;;;;;;;;;10211490;28;20084;-69
2023/07/25 03:20:53;;;;;;;11.98;10.82;;;;;;;;;;10231571;28;20542;-69
2023/07/25 03:25:49;;;;;;;11.52;10.27;;;;;;;;;;10217783;28;20400;-69
2023/07/25 03:30:46;;;;;;;11.27;10.27;;;;;;;;;;10221467;28;20068;-71
2023/07/25 03:35:42;;;;;;;17.77;11.07;;;;;;;;;;10207692;28;20245;-73
2023/07/25 03:40:39;;;;;;;13.30;12.05;;;;;;;;;;10215648;28;20454;-72
2023/07/25 03:45:35;;;;;;;17.05;13.20;;;;;;;;;;10201103;28;20419;-70
2023/07/25 03:50:31;;;;;;;15.30;12.20;;;;;;;;;;10217959;28;20563;-71
2023/07/25 03:55:28;;;;;;;13.02;10.98;;;;;;;;;;10212091;28;20049;-70
2023/07/25 04:00:24;;;;;;;14.25;11.50;;;;;;;;;;10210250;28;20081;-71
2023/07/25 04:05:21;;;;;;;13.45;11.27;;;;;;;;;;10214366;28;20053;-71
2023/07/25 04:10:17;;;;;;;12.13;11.00;;;;;;;;;;10199918;28;20080;-72
2023/07/25 04:15:14;;;;;;;15.13;10.82;;;;;;;;;;10205125;28;20487;-71
2023/07/25 04:20:10;;;;;;;14.30;11.00;;;;;;;;;;10305591;23;20499;-72
2023/07/25 04:25:09;;;;;;;21.45;10.77;;;;;;;;;;10196992;28;20073;-72
2023/07/25 04:30:06;;;;;;;12.77;11.57;;;;;;;;;;10196807;28;20057;-71
2023/07/25 04:35:02;;;;;;;13.45;12.05;;;;;;;;;;10209572;28;20197;-71
2023/07/25 04:39:59;;;;;;;13.48;11.15;;;;;;;;;;10225058;22;20624;-72
2023/07/25 04:44:55;;;;;;;16.40;11.68;;;;;;;;;;10216872;28;20065;-72
2023/07/25 04:49:56;;;;;;;19.95;12.55;;;;;;;;;;10474227;22;21173;-71
2023/07/25 04:54:57;;;;;;;15.32;12.57;;;;;;;;;;10223353;28;20041;-73
2023/07/25 04:59:53;;;;;;;12.18;11.15;;;;;;;;;;10204108;28;20050;-72
2023/07/25 05:04:54;;;;;;;13.55;11.05;;;;;;;;;;10211571;28;20049;-72
2023/07/25 05:09:50;;;;;;;12.45;11.32;;;;;;;;;;10807591;22;20049;-72
2023/07/25 05:14:46;;;;;;;12.45;11.43;;;;;;;;;;10196588;28;20083;-72
2023/07/25 05:24:54;;;;;;;12.48;10.82;;;;;;;;;;10400278;22;20126;-73
2023/07/25 05:36:00;;;;;;;11.85;10.05;;;;;;;;;;10208806;28;20063;-72
2023/07/25 05:40:57;;;;;;;14.48;11.07;;;;;;;;;;10222794;28;20061;-72
2023/07/25 05:45:53;;;;;;;12.07;9.60;;;;;;;;;;10205629;28;20049;-74
2023/07/25 05:56:12;;;;;;;12.23;10.23;;;;;;;;;;10262317;22;20053;-74
2023/07/25 06:25:07;;;;;;;10.95;8.60;;;;;;;;;;10019250;28;20090;-74
2023/07/25 06:30:04;;;;;;;13.48;8.45;;;;;;;;;;10368972;22;20689;-74
2023/07/25 06:35:00;;;;;;;10.32;9.25;;;;;;;;;;10224292;28;20054;-73
2023/07/25 06:40:00;;;;;;;13.90;8.00;;;;;;;;;;10655488;22;20058;-74
2023/07/25 06:44:57;;;;;;;12.57;8.85;;;;;;;;;;10212220;28;20507;-74
2023/07/25 06:49:53;;;;;;;10.95;7.03;;;;;;;;;;10599473;22;20060;-74
2023/07/25 06:54:50;;;;;;;12.57;7.80;;;;;;;;;;10224082;28;20678;-75
2023/07/25 07:05:35;;;;;;;10.65;7.07;;;;;;;;;;10190642;28;20065;-74
2023/07/25 07:10:33;;;;;;;13.02;7.30;;;;;;;;;;10665490;22;20057;-74
2023/07/25 07:15:30;;;;;;;10.20;7.40;;;;;;;;;;10216539;28;20065;-74
2023/07/25 07:20:26;;;;;;;7.90;6.22;;;;;;;;;;10394072;22;20053;-73
2023/07/25 07:25:22;;;;;;;10.68;6.55;;;;;;;;;;10228185;28;20045;-73
2023/07/25 07:31:09;;;;;;;11.50;5.90;;;;;;;;;;10274900;22;20044;-73
2023/07/25 07:41:54;;;;;;;13.07;6.43;;;;;;;;;;10305078;22;20054;-73
2023/07/25 07:59:34;;;;;;;11.05;7.22;;;;;;;;;;10207654;28;20057;-74
2023/07/25 08:04:31;;;;;;;9.90;7.00;;;;;;;;;;10220755;28;20059;-74
2023/07/25 08:10:26;;;;;;;;;;;;;;;;;;;;;
2023/07/25 08:21:28;;;;;;;12.98;6.38;;;;;;;;;;10469284;22;20121;-73
2023/07/25 08:26:32;;;;;;;11.23;6.95;;;;;;;;;;10172011;28;20044;-75
2023/07/25 08:31:28;;;;;;;12.55;7.70;;;;;;;;;;10176877;28;20045;-74
2023/07/25 08:36:25;;;;;;;12.75;8.45;;;;;;;;;;10163942;28;20069;-72
2023/07/25 08:41:25;;;;;;;8.68;7.30;;;;;;;;;;10181354;28;20047;-74
2023/07/25 08:46:26;;;;;;;13.88;8.38;;;;;;;;;;10180803;28;20052;-73
2023/07/25 08:51:22;;;;;;;11.20;7.65;;;;;;;;;;10158049;28;20054;-73
2023/07/25 09:01:30;;;;;;;10.63;7.75;;;;;;;;;;9865203;22;20117;-73
2023/07/25 09:06:28;;;;;;;6.53;5.68;;;;;;;;;;10222263;28;20046;-72
2023/07/25 09:11:25;;;;;;;8.77;7.43;;;;;;;;;;10205852;28;20418;-73
2023/07/25 09:44:00;;;;;;;7.25;6.50;;;;;;;;;;10191497;28;20231;-73
2023/07/25 10:05:20;;;;;;;14.45;8.23;;;;;;;;;;10166333;28;20061;-72
2023/07/25 10:10:17;;;;;;;9.15;6.32;;;;;;;;;;10331382;22;20055;-71
2023/07/25 10:15:13;;;;;;;7.57;6.03;;;;;;;;;;10245200;28;20426;-72
2023/07/25 10:20:18;;;;;;;8.63;6.05;;;;;;;;;;10264147;28;20728;-72
2023/07/25 10:25:18;;;;;;;7.05;6.35;;;;;;;;;;10270463;28;20506;-73
2023/07/25 10:30:35;;;;;;;8.10;6.03;;;;;;;;;;10270552;28;20465;-73
2023/07/25 10:35:49;;;;;;;8.38;5.97;;;;;;;;;;10265869;28;20052;-72
2023/07/25 10:45:59;;;;;;;8.50;6.15;;;;;;;;;;11207611;22;20043;-73
2023/07/25 11:23:18;;;;;;;7.60;5.80;;;;;;;;;;10055400;28;20055;-73
2023/07/25 11:39:34;;;;;;;11.20;6.55;;;;;;;;;;10279636;22;20109;-73
2023/07/25 11:44:31;;;;;;;9.65;5.32;;;;;;;;;;10145113;28;20081;-73
2023/07/25 11:55:37;;;;;;;9.38;5.53;;;;;;;;;;10117451;28;20125;-73
2023/07/25 12:05:53;;;;;;;7.60;4.88;;;;;;;;;;4994485;26;20050;-72
2023/07/25 12:11:09;;;;;;;6.28;5.07;;;;;;;;;;10278509;22;20161;-73
2023/07/25 12:16:05;;;;;;;8.40;5.45;;;;;;;;;;10168177;28;20045;-73
2023/07/25 12:31:33;;;;;;;6.53;4.70;;;;;;;;;;10263914;22;20041;-72
2023/07/25 12:41:35;;;;;;;7.28;5.30;;;;;;;;;;10330383;22;20072;-72
2023/07/25 12:51:35;;;;;;;7.28;4.38;;;;;;;;;;10146161;28;20046;-72
2023/07/25 13:01:42;;;;;;;11.30;4.97;;;;;;;;;;10092692;22;20041;-71
2023/07/25 13:06:39;;;;;;;5.45;4.55;;;;;;;;;;10219417;28;20076;-71
2023/07/25 13:11:35;;;;;;;7.10;5.20;;;;;;;;;;10212636;28;20053;-71
2023/07/25 13:21:37;;;;;;;7.13;5.07;;;;;;;;;;9297373;26;20073;-71
2023/07/25 13:26:33;;;;;;;8.38;4.80;;;;;;;;;;10209566;28;20056;-71
2023/07/25 13:31:30;;;;;;;10.38;5.47;;;;;;;;;;10221781;28;20411;-71
2023/07/25 13:36:26;;;;;;;5.82;5.32;;;;;;;;;;10224914;28;20527;-72
2023/07/25 13:41:23;;;;;;;6.75;4.80;;;;;;;;;;10228061;28;20570;-72
2023/07/25 13:46:20;;;;;;;9.15;5.03;;;;;;;;;;10267888;28;20049;-72
2023/07/25 13:51:16;;;;;;;9.15;4.97;;;;;;;;;;10269512;28;20044;-72
2023/07/25 13:56:13;;;;;;;7.07;5.10;;;;;;;;;;10279090;28;20048;-71
2023/07/25 14:01:09;;;;;;;7.95;4.80;;;;;;;;;;10268268;28;20518;-71
2023/07/25 14:06:06;;;;;;;5.53;4.93;;;;;;;;;;10251263;28;20057;-72
2023/07/25 14:11:02;;;;;;;7.68;4.70;;;;;;;;;;10272945;28;20045;-72
2023/07/25 14:15:59;;;;;;;9.82;5.18;;;;;;;;;;10281015;28;20045;-72
2023/07/25 14:20:59;;;;;;;6.70;4.60;;;;;;;;;;10267962;28;20044;-72
2023/07/25 14:25:56;;;;;;;8.32;4.85;;;;;;;;;;10279769;28;20072;-71
2023/07/25 14:30:52;;;;;;;10.20;5.70;;;;;;;;;;10270794;28;20447;-72
2023/07/25 14:35:48;;;;;;;5.57;5.07;;;;;;;;;;10264900;28;20532;-73
2023/07/25 14:46:17;;;;;;;6.83;4.40;;;;;;;;;;10328804;22;20495;-72
2023/07/25 15:01:50;;;;;;;5.43;4.32;;;;;;;;;;10421356;22;20061;-72
2023/07/25 15:18:26;;;;;;;5.93;4.50;;;;;;;;;;10043761;28;20039;-72
2023/07/25 15:23:23;;;;;;;6.60;4.53;;;;;;;;;;10109175;28;21431;-72
2023/07/25 15:34:15;;;;;;;9.18;5.07;;;;;;;;;;9864369;26;20058;-73
2023/07/25 15:39:36;;;;;;;8.48;4.63;;;;;;;;;;10162097;28;20488;-72
2023/07/25 15:44:32;;;;;;;5.38;4.82;;;;;;;;;;10173042;28;20069;-73
2023/07/25 15:49:29;;;;;;;7.50;4.70;;;;;;;;;;10228007;22;20043;-72
2023/07/25 15:54:28;;;;;;;7.40;4.88;;;;;;;;;;10182410;28;20074;-73
2023/07/25 15:59:24;;;;;;;7.18;4.90;;;;;;;;;;10176535;28;20070;-72
2023/07/25 16:04:20;;;;;;;7.30;4.65;;;;;;;;;;10183026;28;20053;-72
2023/07/25 16:10:08;;;;;;;;;;;;;;;;;;;;;
2023/07/25 16:43:31;;;;;;;7.50;4.55;;;;;;;;;;2454172;26;20049;-72
2023/07/25 16:53:38;;;;;;;5.72;4.38;;;;;;;;;;10900103;22;20049;-73
2023/07/25 16:58:35;;;;;;;7.82;4.78;;;;;;;;;;10751028;22;20045;-72
2023/07/25 17:03:31;;;;;;;7.07;4.50;;;;;;;;;;10215865;28;20042;-72
2023/07/25 17:08:28;;;;;;;8.95;4.25;;;;;;;;;;10452354;22;20050;-72
2023/07/25 17:13:24;;;;;;;7.38;4.55;;;;;;;;;;10228984;28;20073;-74
2023/07/25 17:23:32;;;;;;;5.05;4.10;;;;;;;;;;10411878;22;20042;-73
2023/07/25 17:29:32;;;;;;;6.30;4.20;;;;;;;;;;10360818;22;20566;-73
2023/07/25 17:34:10;;;;;;;5.45;3.97;;;;;;;;;;10198431;28;20499;-73
2023/07/25 17:55:15;;;;;;;;;;;;;;;;;;;;;
2023/07/25 19:20:24;;;;;;;7.38;4.22;;;;;;;;;;11080062;22;20051;-72
2023/07/25 19:25:20;;;;;;;7.93;3.75;;;;;;;;;;10098317;28;20572;-71
2023/07/25 19:35:28;;;;;;;9.00;4.87;;;;;;;;;;10726592;22;20688;-72
2023/07/25 19:40:25;;;;;;;7.10;4.10;;;;;;;;;;10185203;28;20042;-72
2023/07/25 19:45:21;;;;;;;7.32;4.50;;;;;;;;;;10163548;28;20269;-72
2023/07/25 20:05:46;;;;;;;6.73;5.20;;;;;;;;;;2904653;26;20045;-71
2023/07/25 20:10:43;;;;;;;12.20;5.82;;;;;;;;;;10179373;28;20061;-70
2023/07/25 20:15:39;;;;;;;7.43;4.43;;;;;;;;;;10180464;28;20058;-71
2023/07/25 20:20:35;;;;;;;7.20;5.20;;;;;;;;;;10179556;28;20129;-70
2023/07/25 20:25:32;;;;;;;5.35;4.47;;;;;;;;;;10181019;28;20046;-70
2023/07/25 20:30:31;;;;;;;6.85;5.00;;;;;;;;;;10184076;28;20475;-70
2023/07/25 20:35:27;;;;;;;11.48;5.55;;;;;;;;;;10176352;28;20071;-70
2023/07/25 20:40:23;;;;;;;6.00;4.50;;;;;;;;;;10179863;28;20116;-70
2023/07/25 20:45:20;;;;;;;9.05;5.18;;;;;;;;;;10174809;28;20050;-70
2023/07/25 20:50:16;;;;;;;9.85;5.03;;;;;;;;;;10180343;28;20050;-70
2023/07/25 20:55:13;;;;;;;7.45;5.57;;;;;;;;;;10166665;28;20074;-71
2023/07/25 21:00:09;;;;;;;6.72;5.40;;;;;;;;;;10180397;28;20420;-71
2023/07/25 21:05:06;;;;;;;7.85;5.03;;;;;;;;;;10178997;28;21086;-71
2023/07/25 21:10:02;;;;;;;7.70;4.78;;;;;;;;;;10171633;28;20424;-70
2023/07/25 21:14:59;;;;;;;11.23;5.60;;;;;;;;;;10161831;28;20054;-71
2023/07/25 21:19:55;;;;;;;9.43;5.28;;;;;;;;;;10170518;28;20082;-72
2023/07/25 21:24:51;;;;;;;6.50;4.70;;;;;;;;;;10181475;28;20484;-72
2023/07/25 21:29:48;;;;;;;6.13;4.88;;;;;;;;;;10177695;28;20052;-72
2023/07/25 21:34:44;;;;;;;9.13;4.80;;;;;;;;;;10177799;28;20080;-70
2023/07/25 21:39:40;;;;;;;8.65;5.32;;;;;;;;;;10170502;28;20078;-70
2023/07/25 21:44:37;;;;;;;7.47;5.18;;;;;;;;;;10174015;28;20070;-69
2023/07/25 21:49:33;;;;;;;9.25;5.05;;;;;;;;;;10167932;28;20046;-70
2023/07/25 21:54:29;;;;;;;5.05;4.50;;;;;;;;;;10170150;28;20050;-69
2023/07/25 21:59:26;;;;;;;5.93;4.95;;;;;;;;;;10168438;28;20084;-69
2023/07/25 22:04:22;;;;;;;10.43;5.43;;;;;;;;;;10170837;28;20118;-69
2023/07/25 22:09:18;;;;;;;8.48;5.05;;;;;;;;;;10173429;28;20050;-69
2023/07/25 22:14:15;;;;;;;9.88;5.10;;;;;;;;;;10173545;28;22195;-69
2023/07/25 22:19:11;;;;;;;6.55;4.70;;;;;;;;;;10175284;28;20046;-70
2023/07/25 22:24:07;;;;;;;8.57;5.53;;;;;;;;;;10181175;28;20050;-70
2023/07/25 22:29:04;;;;;;;7.78;5.03;;;;;;;;;;10173851;28;20129;-69
2023/07/25 22:34:00;;;;;;;9.07;5.35;;;;;;;;;;10153693;28;20042;-70
2023/07/25 22:38:57;;;;;;;6.57;4.93;;;;;;;;;;10173063;28;20054;-69
2023/07/25 22:43:53;;;;;;;7.93;5.00;;;;;;;;;;10165598;28;20120;-71
2023/07/25 22:48:49;;;;;;;8.63;4.53;;;;;;;;;;10166414;28;20076;-70
2023/07/25 22:53:46;;;;;;;6.45;4.65;;;;;;;;;;10155992;28;20046;-70
2023/07/25 22:58:42;;;;;;;10.48;5.40;;;;;;;;;;10175750;28;20077;-70
2023/07/25 23:03:39;;;;;;;9.35;4.88;;;;;;;;;;10181521;28;20435;-71
2023/07/25 23:08:36;;;;;;;7.82;4.68;;;;;;;;;;10149870;28;20053;-71
2023/07/25 23:13:32;;;;;;;9.63;5.57;;;;;;;;;;10162531;28;20053;-71
2023/07/25 23:18:28;;;;;;;6.40;4.78;;;;;;;;;;10166229;28;20466;-70
2023/07/25 23:23:25;;;;;;;5.50;4.82;;;;;;;;;;10176485;28;20500;-70
2023/07/25 23:28:21;;;;;;;6.53;5.18;;;;;;;;;;10181354;28;20051;-69
2023/07/25 23:33:17;;;;;;;6.50;4.90;;;;;;;;;;10184419;28;20050;-69
2023/07/25 23:38:14;;;;;;;7.80;5.43;;;;;;;;;;10178291;28;20524;-69
2023/07/25 23:43:11;;;;;;;5.80;5.20;;;;;;;;;;10181868;28;20104;-69
2023/07/25 23:48:07;;;;;;;7.43;5.32;;;;;;;;;;10169792;28;20060;-70
2023/07/25 23:53:03;;;;;;;6.75;5.40;;;;;;;;;;10170921;28;20069;-71
2023/07/25 23:58:00;;;;;;;8.15;5.95;;;;;;;;;;10164943;28;20512;-70
